Capitol Logistics 326


CYHZ
Robert L. Stanfield International Airport
Halifax, CA
KMIA
Miami International Airport
Miami, US

Route Details

Aircraft Information
Primary: Boeing 767-300BDSF
Backup: Not Available
Route Data
Distance: 1403nm
Sched. Duration: 3h 39m
Avg. Duration: 3h 94m (+55m)
Times Flown: 6
Recm'd Route: YQI J585 ACK J62 JOANI SAWED J209 ORF J174 DIW SEELO AR22 JORAY HILEY7
Planned Altitude: 34,000ft
Origin Wx: CYHZ 271600Z 09020G26KT 6SM -FZRA -PL FEW015 OVC046 M01/M03 A2983 RMK SF3SC5 PRESFR SLP109
Dest. Wx: KMIA 271553Z 32011G19KT 10SM FEW110 BKN140 BKN230 18/05 A3016 RMK AO2 SLP213 T01830050
Notes: LOBSTER KING

Financial History
Total Freight: 669,922lbs
Average Load: 111,654lbs/flt
Fuel Used: 279,842lbs
Avg. Fuel Used: 46,640lbs/flt
Fuel Expense: $223,874
Avg. Fuel Expense: $37,312
Avg. Fuel Cost: $0.80/lbs
Total Gross Income: $1,080,247
Pilot Pay: $1,414
Total Expenses: $116,979
Total Revenue: $733,759
Average Revenue: $180,041.22